CNY8 weather

Toronto (Sunnybrook Medical Centre) Heliport
Toronto, Ontario, Canada

Public forecast

Using degrees Celsius for public forecast. Weather courtesy of forecast.io.

METAR (pilot weather report)

Closest report is Billy Bishop Toronto City Centre Airport, 5.7 nm (10.6 km) S. Retrieved 2018/11/19 23:00 UTC (54 minutes ago):

CYTZ 192300Z AUTO 22006KT 9SM FEW160 BKN180 OVC200 03/M04 A2999 RMK SLP160

TAF (pilot weather forecast)

Closest forecast is Billy Bishop Toronto City Centre Airport, 5.7 nm (10.6 km) S. Retrieved 2018/11/19 20:49 UTC (3 hours ago):

TAF CYTZ 191938Z 1920/2020 21008KT P6SM FEW040 BKN170 BECMG 1921/1923 28006KT FM200300 VRB03KT P6SM BKN030 FM200900 27005KT 2SM -SN OVC020 BECMG 2011/2013 32010KT FM201400 32015G25KT P6SM BKN020 FM201700 31012G22KT P6SM SCT030 BECMG 2018/2020 28012G22KT RMK FCST BASED ON AUTO OBS. NXT FCST BY 200200Z